Asheville, NC

8:14 PM EDT on September 02, 2014 (GMT -0400)
Asheville Middle School | Change Station
CLOSE
Current Station
Personal Weather Station
Location: Asheville, NC
Elevation: 2139 ft
Nearby Weather Stations

Elev 2139 ft 35.59 °N, 82.56 °W | Updated 14 minutes ago

Clear
Clear
79.0 °F
Feels Like 81 °F
N
2.7
Wind Variable Wind from SW

Today
High -- | Low -- °F
--% Chance of Precip.
Yesterday
High -- | Low -- °F
Precip. -- in
7:03 AM 7:56 PM
First Quarter, 56% visible
Pressure 30.01 in
Visibility 10.0 miles
Clouds Clear
Heat Index 81 °F
Dew Point 64 °F
Humidity 61%
Rainfall 0.53 in
Snow Depth Not available.
UV 0 out of 12
Pollen 9.10 out of 12
Ozone Good
PM2.5 Good
Flu Activity Not available.
METAR KAVL 022354Z 00000KT 10SM CLR 25/22 A3008 RMK AO2 SLP160 60023 T02500217 10267 20206 55000

More Conditions Fewer Conditions

Pressure 30.01 in
Visibility 10.0 miles
Clouds Clear
Heat Index 81 °F
Dew Point 64 °F
Humidity 61%
Rainfall 0.53 in
Snow Depth Not available.
UV 0 out of 12
Pollen 9.10 out of 12
Ozone Good
PM2.5 Good
Flu Activity Not available.
METAR KAVL 022354Z 00000KT 10SM CLR 25/22 A3008 RMK AO2 SLP160 60023 T02500217 10267 20206 55000

More Conditions Fewer Conditions

10-Day Weather Forecast

Almanac

Astronomy

Sep. 02, 2014 Rise Set
Actual Time 7:03 AM EDT 7:56 PM EDT
Civil Twilight 6:37 AM EDT 8:21 PM EDT
Nautical Twilight 6:06 AM EDT 8:52 PM EDT
Astronomical Twilight 5:34 AM EDT 9:24 PM EDT
Moon 2:31 PM EDT (9/2) 12:11 AM EDT (9/2)
Length of Visible Light 13h 44m
Length of Day
12h 52m
Tomorrow will be 2m 10s shorter.
First Quarter, 56% of the Moon is Illuminated
Today
First Quarter
Sep 8
Full
Sep 15
Last Quarter
Sep 24
New
Oct 1
First Quarter

Today's Extremes

State Highs State Lows

Community

WunderPhotos

Upload Photos

1,749,807 photos uploaded!

Nearby

Air Quality

  Air Quality AQ Index Pollutant
Yesterday Moderate
PM2.5
Yesterday Good
OZONE
Current Good
PM2.5
Current Good
OZONE
Tuesday Good
PM2.5
Tuesday Good
OZONE
Wednesday Good
PM2.5
Wednesday Good
OZONE
Thursday Good
PM2.5
Thursday Good
OZONE
Friday Good
PM2.5
Friday Good
OZONE

Snow Depth

Station Depth Elevation
No new snow has been reported.

Earthquake Activity

City Distance Mag. Time & Date
No recent earthquake activity has been reported nearby.
Minimum magnitude displayed is 2.5.

Coastal Water Temperatures

Place Temperature
No Stations Reporting

Nearby Weather Stations